Time;durP1;ratioP1;P1;durP2;ratioP2;P2;SDS_P1;SDS_P2;PMS_P1;PMS_P2;Temp;Humidity;BMP_temperature;BMP_pressure;BME280_temperature;BME280_humidity;BME280_pressure;Samples;Min_cycle;Max_cycle;Signal;HPM_P1;HPM_P2
2022/08/18 00:01:13;;;;;;;14.32;4.95;;;18.60;99.90;;;;;;5075371;28;20043;-88
2022/08/18 00:03:40;;;;;;;9.45;4.38;;;18.60;99.90;;;;;;5091974;27;20075;-88
2022/08/18 00:06:06;;;;;;;16.17;4.45;;;18.60;99.90;;;;;;5092615;27;20490;-89
2022/08/18 00:08:32;;;;;;;15.32;5.22;;;18.50;99.90;;;;;;5108768;27;20039;-89
2022/08/18 00:10:59;;;;;;;13.57;3.97;;;18.50;99.90;;;;;;5109636;27;20043;-90
2022/08/18 00:13:25;;;;;;;15.82;4.15;;;18.50;99.90;;;;;;5108661;27;20085;-89
2022/08/18 00:15:51;;;;;;;18.73;4.18;;;18.50;99.90;;;;;;5092548;27;20047;-90
2022/08/18 00:18:17;;;;;;;11.55;4.13;;;18.40;99.90;;;;;;5109347;28;20458;-90
2022/08/18 00:20:42;;;;;;;11.60;4.38;;;18.40;99.90;;;;;;5109706;28;20043;-92
2022/08/18 00:23:08;;;;;;;13.38;3.97;;;18.40;99.90;;;;;;5093600;27;20046;-91
2022/08/18 00:25:34;;;;;;;14.05;5.35;;;18.40;99.90;;;;;;5075577;27;20031;-93
2022/08/18 00:28:00;;;;;;;11.02;5.18;;;18.40;99.90;;;;;;5076531;28;20114;-90
2022/08/18 00:30:26;;;;;;;12.95;4.18;;;18.40;99.90;;;;;;5092481;28;20127;-90
2022/08/18 00:32:57;;;;;;;15.20;4.93;;;18.60;99.90;;;;;;5076458;28;20049;-90
2022/08/18 00:35:35;;;;;;;10.93;4.10;;;18.40;99.90;;;;;;5092109;28;20051;-91
2022/08/18 00:38:04;;;;;;;18.05;4.10;;;18.40;99.90;;;;;;5110236;28;20051;-91
2022/08/18 00:40:42;;;;;;;12.25;4.40;;;18.40;99.90;;;;;;5111712;28;20500;-91
2022/08/18 00:43:18;;;;;;;16.10;5.28;;;18.40;99.90;;;;;;5112750;28;20092;-91
2022/08/18 00:45:44;;;;;;;10.20;4.68;;;18.30;99.90;;;;;;5095554;28;20043;-91
2022/08/18 00:48:10;;;;;;;17.48;5.18;;;18.30;99.90;;;;;;5112574;28;20043;-91
2022/08/18 00:50:45;;;;;;;14.63;4.43;;;18.30;99.90;;;;;;5088852;28;20044;-92
2022/08/18 00:53:25;;;;;;;15.95;4.85;;;18.30;99.90;;;;;;5104209;28;20047;-91
2022/08/18 00:55:51;;;;;;;16.35;5.38;;;18.30;99.90;;;;;;5099273;28;20129;-91
2022/08/18 00:58:40;;;;;;;13.68;4.80;;;19.00;99.90;;;;;;5112785;28;20189;-91
2022/08/18 01:01:08;;;;;;;13.00;5.00;;;18.30;99.90;;;;;;5121220;28;20051;-91
2022/08/18 01:03:38;;;;;;;23.33;5.82;;;18.30;99.90;;;;;;5113031;28;20107;-91
2022/08/18 01:06:16;;;;;;;17.33;5.38;;;18.30;99.90;;;;;;5110777;28;20062;-89
2022/08/18 01:08:42;;;;;;;17.13;4.88;;;18.30;99.90;;;;;;5118086;27;20610;-91
2022/08/18 01:11:09;;;;;;;19.83;5.40;;;18.30;99.90;;;;;;5097256;27;20039;-89
2022/08/18 01:13:37;;;;;;;13.57;5.05;;;18.30;99.90;;;;;;5113471;27;20058;-91
2022/08/18 01:21:49;;;;;;;17.90;4.75;;;18.30;99.90;;;;;;5096138;27;20415;-90
2022/08/18 01:21:50;;;;;;;19.65;5.68;;;18.30;99.90;;;;;;5112722;27;20070;-92
2022/08/18 01:24:18;;;;;;;20.77;5.90;;;18.40;99.90;;;;;;5096201;27;20043;-92
2022/08/18 01:26:48;;;;;;;17.00;5.28;;;18.40;99.90;;;;;;5112726;27;20134;-92
2022/08/18 01:29:16;;;;;;;18.02;5.35;;;18.40;99.90;;;;;;5096205;27;20039;-91
2022/08/18 01:31:54;;;;;;;19.45;6.20;;;18.40;99.90;;;;;;5112897;27;20050;-91
2022/08/18 01:34:23;;;;;;;16.30;4.90;;;18.40;99.90;;;;;;5094663;27;20078;-91
2022/08/18 01:36:51;;;;;;;21.00;6.25;;;18.30;99.90;;;;;;5079465;27;20130;-91
2022/08/18 01:39:18;;;;;;;16.85;4.90;;;18.40;99.90;;;;;;5095383;27;20040;-90
2022/08/18 01:41:44;;;;;;;10.80;4.78;;;18.40;99.90;;;;;;5095401;27;20041;-91
2022/08/18 01:44:10;;;;;;;15.32;5.40;;;18.40;99.90;;;;;;5113128;27;20027;-90
2022/08/18 01:46:39;;;;;;;24.63;6.85;;;18.40;99.90;;;;;;5098270;27;20047;-93
2022/08/18 01:49:06;;;;;;;17.73;5.82;;;18.40;99.90;;;;;;5115945;27;20089;-91
2022/08/18 01:51:33;;;;;;;18.95;6.05;;;18.40;99.90;;;;;;5082826;27;20043;-90
2022/08/18 01:54:00;;;;;;;13.40;5.00;;;18.40;99.90;;;;;;5089071;27;20043;-90
2022/08/18 01:56:26;;;;;;;24.63;5.72;;;18.40;99.90;;;;;;5110296;27;20046;-90
2022/08/18 01:58:53;;;;;;;21.77;6.25;;;18.40;99.90;;;;;;5112019;27;20039;-90
2022/08/18 02:01:21;;;;;;;21.20;5.68;;;18.20;99.90;;;;;;5106020;27;20668;-91
2022/08/18 02:03:53;;;;;;;15.07;6.10;;;18.50;99.90;;;;;;5095653;27;20071;-89
2022/08/18 02:06:20;;;;;;;15.50;5.70;;;18.40;99.90;;;;;;5095657;27;20043;-90
2022/08/18 02:08:46;;;;;;;11.73;6.22;;;18.50;99.90;;;;;;5112131;27;20425;-91
2022/08/18 02:11:12;;;;;;;19.25;6.32;;;18.50;99.90;;;;;;5078521;27;20116;-90
2022/08/18 02:13:39;;;;;;;14.80;5.63;;;18.50;99.90;;;;;;5094433;27;20043;-91
2022/08/18 02:16:06;;;;;;;22.80;6.53;;;18.50;99.90;;;;;;5111962;27;20051;-90
2022/08/18 02:18:34;;;;;;;17.27;5.95;;;18.60;99.90;;;;;;5112039;27;20082;-91
2022/08/18 02:21:12;;;;;;;15.48;6.40;;;18.60;99.90;;;;;;5094232;27;20043;-91
2022/08/18 02:23:40;;;;;;;17.08;6.10;;;18.60;99.90;;;;;;5095263;27;20050;-90
2022/08/18 02:26:09;;;;;;;19.85;8.18;;;18.60;99.90;;;;;;5093933;27;20407;-90
2022/08/18 02:28:35;;;;;;;21.95;6.50;;;18.60;99.90;;;;;;5111839;27;20031;-91
2022/08/18 02:31:10;;;;;;;15.98;5.65;;;18.60;99.90;;;;;;5094402;27;20126;-90
2022/08/18 02:33:36;;;;;;;17.92;6.88;;;18.60;99.90;;;;;;5094611;27;20080;-91
2022/08/18 02:36:03;;;;;;;18.10;5.35;;;18.60;99.90;;;;;;5095012;27;20054;-91
2022/08/18 02:38:29;;;;;;;23.23;6.60;;;18.50;99.90;;;;;;5076952;27;20049;-90
2022/08/18 02:41:00;;;;;;;21.10;5.53;;;18.60;99.90;;;;;;5061227;27;20062;-91
2022/08/18 02:43:27;;;;;;;9.43;4.45;;;18.60;99.90;;;;;;5093780;27;20187;-90
2022/08/18 02:45:53;;;;;;;14.60;5.38;;;18.60;99.90;;;;;;5094428;27;20043;-90
2022/08/18 02:48:34;;;;;;;16.50;5.25;;;18.50;99.90;;;;;;5094055;27;20039;-91
2022/08/18 02:51:13;;;;;;;15.88;4.90;;;18.60;99.90;;;;;;5064436;27;20486;-92
2022/08/18 02:53:41;;;;;;;18.23;4.55;;;18.60;99.90;;;;;;5094281;27;20050;-91
2022/08/18 02:58:42;;;;;;;21.75;5.28;;;18.60;99.90;;;;;;5111266;27;20517;-90
2022/08/18 03:01:08;;;;;;;17.80;4.80;;;18.60;99.90;;;;;;5110762;27;20043;-91
2022/08/18 03:03:35;;;;;;;20.52;4.95;;;18.60;99.90;;;;;;5093748;27;20104;-91
2022/08/18 03:06:00;;;;;;;14.85;5.00;;;18.70;99.90;;;;;;5111274;27;20375;-91
2022/08/18 03:08:26;;;;;;;14.50;6.22;;;18.70;99.90;;;;;;5093810;27;20050;-90
2022/08/18 03:10:52;;;;;;;19.17;5.88;;;18.70;99.90;;;;;;5094018;27;20081;-91
2022/08/18 03:13:18;;;;;;;17.75;5.22;;;18.70;99.90;;;;;;5093653;27;20078;-91
2022/08/18 03:15:44;;;;;;;11.63;5.25;;;18.70;99.90;;;;;;5093668;27;20085;-90
2022/08/18 03:18:11;;;;;;;11.30;5.65;;;18.70;99.90;;;;;;5077040;27;20465;-91
2022/08/18 03:20:37;;;;;;;15.43;5.50;;;18.60;99.90;;;;;;5093318;27;20398;-91
2022/08/18 03:23:03;;;;;;;19.98;6.28;;;18.70;99.90;;;;;;5093985;27;20095;-91
2022/08/18 03:25:29;;;;;;;10.52;4.20;;;18.70;99.90;;;;;;5093082;27;20092;-91
2022/08/18 03:27:55;;;;;;;12.93;5.35;;;18.70;99.90;;;;;;5093585;27;20031;-90
2022/08/18 03:30:22;;;;;;;14.63;5.55;;;18.70;99.90;;;;;;5075777;27;20126;-91
2022/08/18 03:32:48;;;;;;;10.68;6.35;;;18.70;99.90;;;;;;5092830;27;20565;-90
2022/08/18 03:35:15;;;;;;;17.40;5.32;;;18.70;99.90;;;;;;5075725;27;20535;-91
2022/08/18 03:37:41;;;;;;;17.70;5.40;;;18.70;99.90;;;;;;5093022;27;20089;-90
2022/08/18 03:40:09;;;;;;;16.05;6.22;;;18.70;99.90;;;;;;5060385;27;20573;-90
2022/08/18 03:42:36;;;;;;;13.18;5.15;;;18.70;99.90;;;;;;5075793;27;20189;-92
2022/08/18 03:45:02;;;;;;;15.35;5.63;;;18.60;99.90;;;;;;5093231;27;20042;-92
2022/08/18 03:47:27;;;;;;;19.92;5.70;;;18.70;99.90;;;;;;5110977;27;20945;-91
2022/08/18 03:49:53;;;;;;;15.00;5.00;;;18.60;99.90;;;;;;5093298;27;20042;-90
2022/08/18 03:52:19;;;;;;;15.45;5.35;;;18.60;99.90;;;;;;5093548;27;20043;-90
2022/08/18 03:54:45;;;;;;;11.30;5.85;;;18.70;99.90;;;;;;5110228;27;20515;-90
2022/08/18 03:57:11;;;;;;;9.57;4.72;;;18.60;99.90;;;;;;5076818;27;20066;-90
2022/08/18 03:59:42;;;;;;;24.80;6.55;;;18.70;99.90;;;;;;5075877;27;20049;-91
2022/08/18 04:02:09;;;;;;;13.30;4.97;;;18.70;99.90;;;;;;5093134;27;20047;-90
2022/08/18 04:04:35;;;;;;;15.40;5.20;;;18.70;99.90;;;;;;5075605;27;20028;-91
2022/08/18 04:07:06;;;;;;;14.15;4.63;;;18.70;99.90;;;;;;5092531;27;20035;-91
2022/08/18 04:09:34;;;;;;;11.95;5.10;;;18.70;99.90;;;;;;5092554;27;20550;-90
2022/08/18 04:12:11;;;;;;;6.72;4.63;;;18.70;99.90;;;;;;5076346;27;20456;-90
2022/08/18 04:14:38;;;;;;;11.05;5.35;;;18.70;99.90;;;;;;5092926;27;20032;-92
2022/08/18 04:17:04;;;;;;;22.10;5.22;;;18.70;99.90;;;;;;5091484;27;20043;-90
2022/08/18 04:19:32;;;;;;;12.10;4.95;;;18.70;99.90;;;;;;5075883;27;20043;-90
2022/08/18 04:21:57;;;;;;;10.32;4.75;;;18.70;99.90;;;;;;5075491;27;20058;-91
2022/08/18 04:24:25;;;;;;;14.07;5.03;;;18.70;99.90;;;;;;5075877;27;20076;-91
2022/08/18 04:26:51;;;;;;;13.88;5.28;;;18.70;99.90;;;;;;5092535;28;20532;-91
2022/08/18 04:29:22;;;;;;;11.10;4.88;;;18.70;99.90;;;;;;5075426;28;20035;-90
2022/08/18 04:31:50;;;;;;;14.05;5.07;;;18.70;99.90;;;;;;5109749;28;20039;-92
2022/08/18 04:34:17;;;;;;;10.27;4.43;;;18.70;99.90;;;;;;5075347;27;20043;-88
2022/08/18 04:36:43;;;;;;;11.25;4.07;;;18.80;99.90;;;;;;5109189;28;20066;-91
2022/08/18 04:39:12;;;;;;;20.75;4.78;;;18.70;99.90;;;;;;5092035;28;20528;-90
2022/08/18 04:41:39;;;;;;;14.43;5.28;;;18.80;99.90;;;;;;5092580;28;20035;-91
2022/08/18 04:44:07;;;;;;;10.68;4.88;;;18.70;99.90;;;;;;5094432;27;20043;-91
2022/08/18 04:46:43;;;;;;;11.15;3.72;;;18.80;99.90;;;;;;5095715;27;20036;-91
2022/08/18 04:49:10;;;;;;;10.07;4.80;;;18.80;99.90;;;;;;5096531;27;20050;-91
2022/08/18 04:51:39;;;;;;;10.27;5.22;;;18.80;99.90;;;;;;5113048;27;20035;-91
2022/08/18 04:54:05;;;;;;;11.00;6.05;;;18.70;99.90;;;;;;5096622;27;20098;-91
2022/08/18 04:56:35;;;;;;;10.75;5.85;;;18.80;99.90;;;;;;5079212;27;20078;-90
2022/08/18 04:59:11;;;;;;;12.50;5.05;;;18.70;99.90;;;;;;5096360;27;20129;-89
2022/08/18 05:01:39;;;;;;;11.25;4.85;;;18.70;99.90;;;;;;5096955;27;20088;-91
2022/08/18 05:04:06;;;;;;;14.98;5.13;;;18.70;99.90;;;;;;5113435;27;20386;-90
2022/08/18 05:06:32;;;;;;;13.88;4.95;;;18.80;99.90;;;;;;5079726;27;20692;-90
2022/08/18 05:09:03;;;;;;;11.95;4.70;;;18.70;99.90;;;;;;5095345;27;20085;-92
2022/08/18 05:11:33;;;;;;;13.60;4.57;;;18.80;99.90;;;;;;5113506;27;20047;-90
2022/08/18 05:14:01;;;;;;;12.18;4.65;;;18.80;99.90;;;;;;5096264;27;20039;-90
2022/08/18 05:16:28;;;;;;;11.52;5.32;;;18.80;99.90;;;;;;5095384;27;20050;-91
2022/08/18 05:18:54;;;;;;;17.63;5.45;;;18.80;99.90;;;;;;5096435;27;20043;-90
2022/08/18 05:21:21;;;;;;;9.13;4.53;;;18.70;99.90;;;;;;5095421;27;20405;-90
2022/08/18 05:23:48;;;;;;;9.25;4.90;;;18.80;99.90;;;;;;5095755;27;20050;-91
2022/08/18 05:26:16;;;;;;;15.98;5.75;;;18.70;99.90;;;;;;5095418;27;20048;-90
2022/08/18 05:28:43;;;;;;;17.67;6.28;;;18.80;99.90;;;;;;5112680;27;20509;-90
2022/08/18 05:31:12;;;;;;;13.13;5.07;;;18.80;99.90;;;;;;5095957;27;20043;-91
2022/08/18 05:33:39;;;;;;;13.43;4.82;;;18.40;99.90;;;;;;5112394;27;20496;-92
2022/08/18 05:36:29;;;;;;;13.35;5.50;;;18.80;99.90;;;;;;5112689;27;20051;-89
2022/08/18 05:39:01;;;;;;;10.23;4.20;;;18.80;99.90;;;;;;5113004;27;20102;-90
2022/08/18 05:41:32;;;;;;;14.65;4.13;;;18.80;99.90;;;;;;5095377;27;20516;-89
2022/08/18 05:44:00;;;;;;;15.32;4.00;;;18.80;99.90;;;;;;5112686;27;20525;-90
2022/08/18 05:46:39;;;;;;;12.38;4.13;;;18.80;99.90;;;;;;5112138;27;20038;-91
2022/08/18 05:49:05;;;;;;;13.10;4.45;;;18.90;99.90;;;;;;5095843;27;20043;-90
2022/08/18 05:51:48;;;;;;;11.73;4.35;;;18.90;99.90;;;;;;5078000;27;20126;-90
2022/08/18 05:57:07;;;;;;;10.05;3.95;;;19.00;99.90;;;;;;5099097;27;20088;-91
2022/08/18 05:59:38;;;;;;;10.23;4.25;;;19.10;99.90;;;;;;5112297;27;20039;-90
2022/08/18 06:02:31;;;;;;;11.25;4.50;;;19.10;99.90;;;;;;5113368;27;20416;-91
2022/08/18 06:05:05;;;;;;;13.90;3.88;;;19.20;99.90;;;;;;5113130;27;20047;-90
2022/08/18 06:07:52;;;;;;;12.70;4.65;;;19.30;99.90;;;;;;5105317;27;20122;-90
2022/08/18 06:10:18;;;;;;;14.73;4.10;;;19.30;99.90;;;;;;5117122;27;20054;-90
2022/08/18 06:12:50;;;;;;;10.93;4.13;;;19.40;99.90;;;;;;5072416;27;20035;-90
2022/08/18 06:15:25;;;;;;;11.93;4.60;;;19.40;99.90;;;;;;5117211;27;20058;-90
2022/08/18 06:18:03;;;;;;;14.07;3.97;;;19.40;99.90;;;;;;5099540;27;20043;-89
2022/08/18 06:21:01;;;;;;;8.18;3.72;;;19.40;99.90;;;;;;5128309;27;20076;-91
2022/08/18 06:23:52;;;;;;;10.43;4.25;;;19.30;99.90;;;;;;5081226;27;20094;-90
2022/08/18 06:26:44;;;;;;;15.68;3.58;;;19.30;99.90;;;;;;5106656;27;20383;-90
2022/08/18 06:29:41;;;;;;;12.40;3.50;;;19.30;99.90;;;;;;5106409;27;20139;-90
2022/08/18 06:32:27;;;;;;;12.60;2.78;;;19.30;99.90;;;;;;5124546;27;20360;-90
2022/08/18 06:35:10;;;;;;;14.85;3.05;;;19.20;99.90;;;;;;5124757;27;20055;-90
2022/08/18 06:40:34;;;;;;;8.63;3.00;;;19.20;99.90;;;;;;5118606;27;19937;-91
2022/08/18 06:42:59;;;;;;;11.65;2.63;;;19.30;99.90;;;;;;5078054;27;20043;-91
2022/08/18 06:45:34;;;;;;;16.05;4.05;;;19.30;99.90;;;;;;5094712;27;20035;-91
2022/08/18 06:48:20;;;;;;;10.93;3.03;;;19.30;99.90;;;;;;5111630;27;20046;-90
2022/08/18 06:50:57;;;;;;;11.70;3.58;;;19.30;99.90;;;;;;5094236;27;20103;-92
2022/08/18 06:53:51;;;;;;;14.57;4.18;;;19.30;99.90;;;;;;5094270;27;20469;-90
2022/08/18 06:56:36;;;;;;;16.80;2.90;;;19.30;99.90;;;;;;5094512;27;20079;-90
2022/08/18 06:59:23;;;;;;;15.77;2.67;;;19.30;99.90;;;;;;5110647;27;20551;-90
2022/08/18 07:01:53;;;;;;;11.35;2.80;;;19.30;99.90;;;;;;5094600;27;20051;-91
2022/08/18 07:05:04;;;;;;;11.82;2.17;;;19.30;99.90;;;;;;5110989;27;20042;-90
2022/08/18 07:07:35;;;;;;;8.60;2.30;;;19.30;99.90;;;;;;5099513;27;20587;-91
2022/08/18 07:10:04;;;;;;;13.00;3.50;;;19.30;99.90;;;;;;5094268;27;20039;-92
2022/08/18 07:12:30;;;;;;;9.50;2.05;;;19.30;99.90;;;;;;5111102;27;20061;-90
2022/08/18 07:15:01;;;;;;;6.30;2.63;;;19.20;99.90;;;;;;5094765;27;20592;-90
2022/08/18 07:17:29;;;;;;;12.57;2.42;;;19.20;99.90;;;;;;5111199;27;20070;-90
2022/08/18 07:20:00;;;;;;;11.00;2.65;;;19.20;99.90;;;;;;5112853;27;20086;-89
2022/08/18 07:22:27;;;;;;;18.38;3.28;;;19.20;99.90;;;;;;5082446;27;20035;-90
2022/08/18 07:24:57;;;;;;;11.25;2.17;;;19.20;99.90;;;;;;5126319;27;20047;-91
2022/08/18 07:27:47;;;;;;;9.18;2.47;;;19.20;99.90;;;;;;5106949;27;20062;-90
2022/08/18 07:30:18;;;;;;;12.57;2.42;;;19.20;99.90;;;;;;5106065;27;20067;-91
2022/08/18 07:32:46;;;;;;;6.75;2.20;;;19.20;99.90;;;;;;5117815;27;20437;-90
2022/08/18 07:35:18;;;;;;;13.00;2.17;;;19.10;99.90;;;;;;5111057;27;20096;-91
2022/08/18 07:37:43;;;;;;;10.57;2.30;;;19.10;99.90;;;;;;5110239;27;20051;-91
2022/08/18 07:40:16;;;;;;;10.05;2.47;;;19.20;99.90;;;;;;5093851;27;20046;-91
2022/08/18 07:43:02;;;;;;;4.47;1.88;;;19.30;99.90;;;;;;5109451;27;20043;-89
2022/08/18 07:45:43;;;;;;;10.40;3.25;;;19.30;99.90;;;;;;5110292;27;20083;-90
2022/08/18 07:48:26;;;;;;;7.18;2.10;;;19.30;99.90;;;;;;5110655;27;20035;-91
2022/08/18 07:51:06;;;;;;;7.95;2.42;;;19.40;99.90;;;;;;5092346;27;20062;-89
2022/08/18 07:53:46;;;;;;;6.97;1.88;;;19.50;99.90;;;;;;5110148;27;20239;-90
2022/08/18 07:56:51;;;;;;;7.75;1.65;;;19.50;99.90;;;;;;5092387;27;20051;-91
2022/08/18 07:59:47;;;;;;;7.95;1.75;;;19.60;99.90;;;;;;5109699;27;20433;-92
2022/08/18 08:02:43;;;;;;;6.32;1.85;;;19.70;99.90;;;;;;5101261;27;20066;-92
2022/08/18 08:05:20;;;;;;;7.10;1.52;;;19.80;99.90;;;;;;5093156;27;20047;-90
2022/08/18 08:08:12;;;;;;;4.93;1.42;;;19.90;99.90;;;;;;5109307;27;20043;-91
2022/08/18 08:11:01;;;;;;;3.88;1.45;;;19.90;99.90;;;;;;5092664;27;20035;-90
2022/08/18 08:13:43;;;;;;;3.22;1.10;;;19.90;99.90;;;;;;5092567;27;20043;-90
2022/08/18 08:16:25;;;;;;;2.38;1.00;;;19.80;99.90;;;;;;5092315;27;20458;-91
2022/08/18 08:19:04;;;;;;;3.42;1.25;;;19.90;99.90;;;;;;5109782;28;20047;-91
2022/08/18 08:21:36;;;;;;;3.97;1.30;;;19.90;99.90;;;;;;5092780;28;20057;-90
2022/08/18 08:24:30;;;;;;;2.50;1.00;;;20.00;99.90;;;;;;5092965;28;20114;-91
2022/08/18 08:27:28;;;;;;;3.13;1.10;;;20.00;99.90;;;;;;5092863;28;20043;-91
2022/08/18 08:30:07;;;;;;;5.93;1.17;;;20.00;99.90;;;;;;5085210;27;20051;-90
2022/08/18 08:33:00;;;;;;;6.30;2.30;;;20.00;99.90;;;;;;5093093;28;20054;-91
2022/08/18 08:35:48;;;;;;;5.32;1.55;;;19.90;99.90;;;;;;5092915;28;20043;-91
2022/08/18 08:38:34;;;;;;;3.80;1.20;;;19.90;99.90;;;;;;5086999;28;20085;-90
2022/08/18 08:41:12;;;;;;;11.25;1.30;;;20.00;99.90;;;;;;5074577;28;20638;-90
2022/08/18 08:43:54;;;;;;;4.10;1.27;;;20.00;99.90;;;;;;5109871;28;20078;-91
2022/08/18 08:46:24;;;;;;;5.68;1.45;;;20.00;99.90;;;;;;5092262;28;20040;-91
2022/08/18 08:48:58;;;;;;;5.68;1.20;;;20.00;99.90;;;;;;5110527;28;20053;-92
2022/08/18 08:51:43;;;;;;;9.48;1.40;;;20.10;99.90;;;;;;5111648;28;20043;-92
2022/08/18 08:54:12;;;;;;;5.93;1.17;;;20.00;99.90;;;;;;5095594;28;20043;-91
2022/08/18 08:56:46;;;;;;;3.63;1.42;;;20.00;99.90;;;;;;5095683;28;20452;-91
2022/08/18 08:59:16;;;;;;;4.47;1.30;;;19.90;99.90;;;;;;5095241;28;20043;-92
2022/08/18 09:01:56;;;;;;;3.53;1.20;;;19.90;99.90;;;;;;5112731;28;20081;-91
2022/08/18 09:04:38;;;;;;;5.13;1.20;;;20.00;99.90;;;;;;5112359;28;20058;-90
2022/08/18 09:07:23;;;;;;;5.70;1.58;;;20.00;99.90;;;;;;5095092;28;20078;-92
2022/08/18 09:10:19;;;;;;;5.93;0.93;;;20.10;99.90;;;;;;5112898;28;20039;-92
2022/08/18 09:13:02;;;;;;;8.15;1.67;;;20.20;99.90;;;;;;5073386;28;20051;-90
2022/08/18 09:16:06;;;;;;;9.48;1.40;;;20.30;99.90;;;;;;5095189;28;20085;-90
2022/08/18 09:18:47;;;;;;;4.90;1.20;;;20.30;99.90;;;;;;5096268;28;20043;-92
2022/08/18 09:21:25;;;;;;;4.50;1.50;;;20.30;99.90;;;;;;5111688;28;20402;-91
2022/08/18 09:23:56;;;;;;;3.38;1.48;;;20.20;99.90;;;;;;5112599;28;20043;-90
2022/08/18 09:26:38;;;;;;;5.05;1.25;;;20.20;99.90;;;;;;5095547;28;20043;-91
2022/08/18 09:29:46;;;;;;;9.15;1.48;;;20.20;99.90;;;;;;5095389;27;20107;-91
2022/08/18 09:32:17;;;;;;;5.55;1.30;;;20.20;99.90;;;;;;5116248;27;20355;-91
2022/08/18 09:35:06;;;;;;;3.47;1.20;;;20.30;99.90;;;;;;5116350;27;20111;-91
2022/08/18 09:41:30;;;;;;;8.38;1.27;;;20.30;99.90;;;;;;5098476;27;20134;-90
2022/08/18 09:44:08;;;;;;;10.48;1.20;;;20.60;99.90;;;;;;5100236;27;20046;-90
2022/08/18 09:46:43;;;;;;;4.75;1.95;;;20.90;99.90;;;;;;5115780;27;20363;-90
2022/08/18 09:49:21;;;;;;;5.32;1.02;;;21.00;99.90;;;;;;5116418;27;20469;-92
2022/08/18 09:51:59;;;;;;;4.43;1.45;;;21.10;99.90;;;;;;5118419;27;20464;-90
2022/08/18 09:54:47;;;;;;;4.18;1.00;;;21.20;99.90;;;;;;5101040;27;20100;-91
2022/08/18 09:57:16;;;;;;;6.90;1.25;;;21.20;99.90;;;;;;5118569;27;20047;-89
2022/08/18 09:59:44;;;;;;;9.35;1.23;;;21.40;99.90;;;;;;5117456;27;20411;-90
2022/08/18 10:02:26;;;;;;;4.68;0.85;;;21.70;99.90;;;;;;5101098;27;20065;-90
2022/08/18 10:05:14;;;;;;;6.03;1.13;;;21.70;99.90;;;;;;5101048;27;20054;-90
2022/08/18 10:07:42;;;;;;;4.13;1.02;;;21.80;99.90;;;;;;5116737;27;20420;-89
2022/08/18 10:10:48;;;;;;;5.55;1.00;;;21.70;99.90;;;;;;5118146;27;20471;-89
2022/08/18 10:13:40;;;;;;;2.90;1.10;;;21.70;99.90;;;;;;5116576;27;20494;-89
2022/08/18 10:16:24;;;;;;;4.10;1.17;;;21.80;99.90;;;;;;5099903;27;20656;-90
2022/08/18 10:19:00;;;;;;;3.20;0.80;;;21.70;99.90;;;;;;5101229;27;20122;-89
2022/08/18 10:21:29;;;;;;;2.38;0.93;;;21.60;99.90;;;;;;5116280;27;20043;-89
2022/08/18 10:24:07;;;;;;;3.35;0.60;;;21.40;99.90;;;;;;5100670;27;20549;-90
2022/08/18 10:26:36;;;;;;;5.90;1.10;;;21.40;99.90;;;;;;5116816;27;20058;-89
2022/08/18 10:29:26;;;;;;;5.15;1.17;;;21.30;99.90;;;;;;5099512;27;20043;-89
2022/08/18 10:31:55;;;;;;;4.25;1.02;;;21.30;99.90;;;;;;5100300;27;20051;-90
2022/08/18 10:34:47;;;;;;;3.55;0.82;;;21.30;99.90;;;;;;5116043;27;20097;-88
2022/08/18 10:37:25;;;;;;;6.63;1.08;;;21.40;99.90;;;;;;5099390;27;20051;-88
2022/08/18 10:40:22;;;;;;;7.10;1.45;;;21.40;99.90;;;;;;5117092;27;20055;-89
2022/08/18 10:43:14;;;;;;;5.93;1.30;;;21.40;99.90;;;;;;5073159;27;20051;-89
2022/08/18 10:45:50;;;;;;;1.92;0.80;;;21.30;99.90;;;;;;5110516;27;20079;-89
2022/08/18 10:48:27;;;;;;;4.20;0.88;;;21.30;99.90;;;;;;5093820;27;20100;-89
2022/08/18 10:50:58;;;;;;;5.05;1.85;;;21.30;99.90;;;;;;5092693;27;20544;-89
2022/08/18 10:53:36;;;;;;;2.55;0.77;;;21.20;99.90;;;;;;5111066;27;20047;-88
2022/08/18 10:56:46;;;;;;;6.93;1.55;;;21.20;99.90;;;;;;5109427;27;20564;-88
2022/08/18 10:59:57;;;;;;;4.13;1.10;;;21.20;99.90;;;;;;5093448;27;20050;-88
2022/08/18 11:02:53;;;;;;;3.35;0.88;;;21.10;99.90;;;;;;5038658;27;20051;-89
2022/08/18 11:05:24;;;;;;;1.48;0.85;;;21.00;99.90;;;;;;5093104;27;20107;-88
2022/08/18 11:07:57;;;;;;;1.73;0.95;;;20.90;99.90;;;;;;5109551;27;20046;-88
2022/08/18 11:10:39;;;;;;;2.33;0.95;;;20.90;99.90;;;;;;5093737;27;20078;-88
2022/08/18 11:13:20;;;;;;;3.55;1.23;;;20.90;99.90;;;;;;5092304;27;20043;-88
2022/08/18 11:16:08;;;;;;;2.35;0.90;;;20.90;99.90;;;;;;5109733;27;20079;-88
2022/08/18 11:19:09;;;;;;;4.45;1.10;;;21.00;99.90;;;;;;5110000;27;20043;-89
2022/08/18 11:21:39;;;;;;;3.25;0.90;;;20.90;99.90;;;;;;5072894;27;20051;-90
2022/08/18 11:24:12;;;;;;;2.17;0.90;;;21.00;99.90;;;;;;5092947;27;20054;-89
2022/08/18 11:26:48;;;;;;;2.65;0.88;;;21.00;99.90;;;;;;5109762;27;20536;-89
2022/08/18 11:29:39;;;;;;;2.70;1.00;;;21.00;99.90;;;;;;5109495;27;20177;-89
2022/08/18 11:32:28;;;;;;;5.25;1.35;;;21.20;99.90;;;;;;5093514;27;20474;-90
2022/08/18 11:34:57;;;;;;;7.68;1.48;;;21.40;99.90;;;;;;5092983;27;20086;-89
2022/08/18 11:37:45;;;;;;;7.63;1.92;;;21.60;99.90;;;;;;5092722;27;20216;-91
2022/08/18 11:40:27;;;;;;;5.82;1.67;;;21.70;99.90;;;;;;5094079;27;20050;-89
2022/08/18 11:43:01;;;;;;;3.78;1.38;;;22.00;99.90;;;;;;5092626;27;20043;-89
2022/08/18 11:45:33;;;;;;;5.20;1.55;;;22.30;99.90;;;;;;5110546;27;20049;-89
2022/08/18 11:48:01;;;;;;;3.05;0.95;;;22.40;99.90;;;;;;5110074;27;20047;-89
2022/08/18 11:50:30;;;;;;;8.60;1.48;;;22.60;99.90;;;;;;5093698;27;20042;-89
2022/08/18 11:52:56;;;;;;;3.80;1.00;;;23.00;99.90;;;;;;5111377;27;20470;-91
2022/08/18 11:55:32;;;;;;;5.88;1.73;;;23.00;99.90;;;;;;5095297;27;20039;-91
2022/08/18 11:57:58;;;;;;;4.63;1.30;;;23.10;99.90;;;;;;5115013;27;20047;-90
2022/08/18 12:00:37;;;;;;;4.63;1.00;;;23.10;99.90;;;;;;5081392;27;20050;-91
2022/08/18 12:03:24;;;;;;;3.90;1.05;;;23.10;99.90;;;;;;5097056;27;20042;-90
2022/08/18 12:05:53;;;;;;;2.10;0.80;;;22.90;99.90;;;;;;5085048;27;20043;-90
2022/08/18 12:08:24;;;;;;;4.05;1.05;;;22.70;99.90;;;;;;5112956;27;20046;-90
2022/08/18 12:11:06;;;;;;;2.70;0.77;;;22.50;99.90;;;;;;5113691;27;20051;-90
2022/08/18 12:13:32;;;;;;;9.45;1.63;;;22.40;99.90;;;;;;5094246;27;20046;-90
2022/08/18 12:16:10;;;;;;;4.60;1.10;;;22.40;99.90;;;;;;5092330;28;20055;-89
2022/08/18 12:18:36;;;;;;;2.85;0.80;;;22.50;99.90;;;;;;5093091;27;20483;-89
2022/08/18 12:21:02;;;;;;;2.45;0.90;;;22.50;99.90;;;;;;5058379;27;20093;-91
2022/08/18 12:23:28;;;;;;;2.40;0.80;;;22.50;99.90;;;;;;5076055;27;20035;-90
2022/08/18 12:25:53;;;;;;;2.22;1.00;;;22.30;99.90;;;;;;5109017;28;20043;-89
2022/08/18 12:28:20;;;;;;;2.70;0.80;;;22.20;99.90;;;;;;5075613;28;20087;-90
2022/08/18 12:30:45;;;;;;;3.35;1.10;;;22.10;99.90;;;;;;5075245;28;20090;-89
2022/08/18 12:33:11;;;;;;;3.13;0.95;;;22.10;99.90;;;;;;5075454;28;20039;-89
2022/08/18 12:35:37;;;;;;;2.15;0.75;;;22.10;99.90;;;;;;5105845;28;20218;-88
2022/08/18 12:38:03;;;;;;;2.35;0.80;;;22.20;99.90;;;;;;5071159;28;20040;-90
2022/08/18 12:40:30;;;;;;;2.35;0.82;;;22.30;99.90;;;;;;5105894;28;20154;-91
2022/08/18 12:42:55;;;;;;;1.35;0.93;;;22.40;99.90;;;;;;5088315;28;20047;-90
2022/08/18 12:45:22;;;;;;;2.53;0.98;;;22.50;99.90;;;;;;5072037;28;20043;-90
2022/08/18 12:47:47;;;;;;;2.50;1.08;;;22.60;99.90;;;;;;5089112;28;20065;-90
2022/08/18 12:50:13;;;;;;;3.47;1.60;;;22.50;99.90;;;;;;5071494;28;20569;-90
2022/08/18 12:52:38;;;;;;;4.60;0.90;;;22.60;99.90;;;;;;5088685;28;20048;-91
2022/08/18 12:55:07;;;;;;;2.38;1.27;;;22.70;99.90;;;;;;5089160;28;20054;-90
2022/08/18 12:57:34;;;;;;;1.63;0.93;;;22.90;99.90;;;;;;5090453;28;20402;-91
2022/08/18 13:00:00;;;;;;;4.85;1.05;;;23.10;99.90;;;;;;5073822;28;20534;-91
2022/08/18 13:02:26;;;;;;;2.35;0.88;;;23.40;99.90;;;;;;5109012;28;20043;-91
2022/08/18 13:04:51;;;;;;;2.78;0.80;;;23.60;99.90;;;;;;5098119;28;20061;-91
2022/08/18 13:07:17;;;;;;;1.25;0.60;;;23.70;99.90;;;;;;5104282;28;20058;-91
2022/08/18 13:09:44;;;;;;;1.00;0.60;;;23.80;99.90;;;;;;5085557;28;20538;-91
2022/08/18 13:12:10;;;;;;;4.10;0.90;;;23.70;99.90;;;;;;5101025;28;20065;-90
2022/08/18 13:14:37;;;;;;;1.30;0.80;;;23.70;99.90;;;;;;5100983;28;20378;-92
2022/08/18 13:17:03;;;;;;;2.50;1.25;;;23.70;99.90;;;;;;5077810;28;20046;-91
2022/08/18 13:19:29;;;;;;;3.97;0.88;;;23.70;99.90;;;;;;5076692;28;20039;-90
2022/08/18 13:21:54;;;;;;;2.20;0.75;;;23.70;99.90;;;;;;5092692;28;20078;-89
2022/08/18 13:24:20;;;;;;;2.30;1.15;;;23.90;99.90;;;;;;5075852;28;20063;-90
2022/08/18 13:26:47;;;;;;;1.85;0.75;;;24.10;99.90;;;;;;5092575;28;20160;-89
2022/08/18 13:29:16;;;;;;;3.30;1.00;;;24.30;99.90;;;;;;5079181;28;20055;-88